createdAt,value
2017-07-01T00:00:48.119Z,8.30
2017-07-01T00:03:15.491Z,8.70
2017-07-01T00:05:42.885Z,8.10
2017-07-01T00:08:10.234Z,7.53
2017-07-01T00:10:38.069Z,8.60
2017-07-01T00:13:05.425Z,9.47
2017-07-01T00:15:32.817Z,8.97
2017-07-01T00:18:00.228Z,8.20
2017-07-01T00:20:27.663Z,8.13
2017-07-01T00:22:55.017Z,9.03
2017-07-01T00:25:22.481Z,8.60
2017-07-01T00:27:49.818Z,8.10
2017-07-01T00:30:17.202Z,8.57
2017-07-01T00:32:44.678Z,7.70
2017-07-01T00:35:12.095Z,8.13
2017-07-01T00:37:39.471Z,8.17
2017-07-01T00:40:07.864Z,7.77
2017-07-01T00:42:35.315Z,7.57
2017-07-01T00:45:02.782Z,8.20
2017-07-01T00:47:30.193Z,8.60
2017-07-01T00:49:57.596Z,8.53
2017-07-01T00:52:24.945Z,8.53
2017-07-01T00:54:52.366Z,7.80
2017-07-01T00:57:19.865Z,7.10
2017-07-01T00:59:47.237Z,7.63
2017-07-01T01:02:14.662Z,7.00
2017-07-01T01:04:42.066Z,6.20
2017-07-01T01:07:09.465Z,7.03
2017-07-01T01:09:36.860Z,7.10
2017-07-01T01:12:04.387Z,7.17
2017-07-01T01:14:31.860Z,7.60
2017-07-01T01:16:59.376Z,8.03
2017-07-01T01:19:26.751Z,6.70
2017-07-01T01:21:54.145Z,7.90
2017-07-01T01:24:21.571Z,6.90
2017-07-01T01:26:48.965Z,6.93
2017-07-01T01:29:16.413Z,6.50
2017-07-01T01:31:43.840Z,6.93
2017-07-01T01:34:11.279Z,6.90
2017-07-01T01:36:38.669Z,7.00
2017-07-01T01:39:06.146Z,7.70
2017-07-01T01:41:33.569Z,6.80
2017-07-01T01:44:01.044Z,6.87
2017-07-01T01:46:28.550Z,6.27
2017-07-01T01:48:56.050Z,6.93
2017-07-01T01:51:23.481Z,6.60
2017-07-01T01:53:50.985Z,7.13
2017-07-01T01:56:18.440Z,6.57
2017-07-01T01:58:46.022Z,6.97
2017-07-01T02:01:13.449Z,6.67
2017-07-01T02:03:40.948Z,7.10
2017-07-01T02:06:08.632Z,7.00
2017-07-01T02:08:37.818Z,7.77
2017-07-01T02:11:05.240Z,6.93
2017-07-01T02:13:32.690Z,6.73
2017-07-01T02:16:04.962Z,7.70
2017-07-01T02:18:32.429Z,6.53
2017-07-01T02:21:00.830Z,6.53
2017-07-01T02:23:28.312Z,7.07
2017-07-01T02:26:10.389Z,7.37
2017-07-01T02:28:37.861Z,6.30
2017-07-01T02:31:05.258Z,6.50
2017-07-01T02:33:32.727Z,7.10
2017-07-01T02:36:18.026Z,6.33
2017-07-01T02:38:45.413Z,6.43
2017-07-01T02:41:12.917Z,6.60
2017-07-01T02:43:40.369Z,6.70
2017-07-01T02:46:10.563Z,5.90
2017-07-01T02:48:43.938Z,6.90
2017-07-01T02:51:30.225Z,6.50
2017-07-01T02:53:57.810Z,7.03
2017-07-01T02:56:42.889Z,7.47
2017-07-01T02:59:16.194Z,6.87
2017-07-01T03:01:59.457Z,7.30
2017-07-01T03:04:26.921Z,6.60
2017-07-01T03:06:54.477Z,6.77
2017-07-01T03:09:21.875Z,6.60
2017-07-01T03:11:49.373Z,6.77
2017-07-01T03:14:16.834Z,6.97
2017-07-01T03:16:44.265Z,7.07
2017-07-01T03:19:11.789Z,6.80
2017-07-01T03:21:39.191Z,6.80
2017-07-01T03:24:06.589Z,6.37
2017-07-01T03:26:34.021Z,7.00
2017-07-01T03:29:07.177Z,6.57
2017-07-01T03:31:34.678Z,6.80
2017-07-01T03:34:02.083Z,6.80
2017-07-01T03:36:29.532Z,6.90
2017-07-01T03:39:02.805Z,7.17
2017-07-01T03:41:36.057Z,6.93
2017-07-01T03:44:18.390Z,7.60
2017-07-01T03:47:01.574Z,7.57
2017-07-01T03:49:33.937Z,7.90
2017-07-01T03:52:01.399Z,7.70
2017-07-01T03:54:34.805Z,7.80
2017-07-01T03:57:02.275Z,7.60
2017-07-01T03:59:29.673Z,6.67
2017-07-01T04:01:57.130Z,7.03
2017-07-01T04:04:24.577Z,7.27
2017-07-01T04:06:52.010Z,7.57
2017-07-01T04:09:19.430Z,7.93
2017-07-01T04:11:49.733Z,8.20
2017-07-01T04:14:17.149Z,8.60
2017-07-01T04:16:44.593Z,7.80
2017-07-01T04:19:30.794Z,8.30
2017-07-01T04:21:58.261Z,7.60
2017-07-01T04:24:25.706Z,8.80
2017-07-01T04:26:53.145Z,7.70
2017-07-01T04:29:20.701Z,7.70
2017-07-01T04:31:48.157Z,7.90
2017-07-01T04:34:15.552Z,8.30
2017-07-01T04:36:43.051Z,7.13
2017-07-01T04:39:13.246Z,8.20
2017-07-01T04:41:41.447Z,7.87
2017-07-01T04:44:18.797Z,8.00
2017-07-01T04:46:46.212Z,7.60
2017-07-01T04:49:13.675Z,8.00
2017-07-01T04:51:46.987Z,7.37
2017-07-01T04:54:30.197Z,7.53
2017-07-01T04:56:59.667Z,7.37
2017-07-01T04:59:27.973Z,8.33
2017-07-01T05:01:56.342Z,8.03
2017-07-01T05:04:26.741Z,7.73
2017-07-01T05:06:54.193Z,7.60
2017-07-01T05:09:37.281Z,9.03
2017-07-01T05:12:04.665Z,8.50
2017-07-01T05:14:32.948Z,8.03
2017-07-01T05:17:00.335Z,8.30
2017-07-01T05:19:28.477Z,8.70
2017-07-01T05:21:55.921Z,8.07
2017-07-01T05:24:24.309Z,8.23
2017-07-01T05:26:51.752Z,8.23
2017-07-01T05:29:19.937Z,8.50
2017-07-01T05:31:47.403Z,8.20
2017-07-01T05:34:29.437Z,8.93
2017-07-01T05:36:56.821Z,8.60
2017-07-01T05:39:25.048Z,8.20
2017-07-01T05:42:05.356Z,7.63
2017-07-01T05:44:47.641Z,8.27
2017-07-01T05:47:15.832Z,8.60
2017-07-01T05:49:43.265Z,8.30
2017-07-01T05:52:10.735Z,9.10
2017-07-01T05:54:38.117Z,7.80
2017-07-01T05:57:05.476Z,8.00
2017-07-01T05:59:36.806Z,8.30
2017-07-01T06:02:04.310Z,8.60
2017-07-01T06:04:31.691Z,8.30
2017-07-01T06:06:59.090Z,8.47
2017-07-01T06:09:41.366Z,8.23
2017-07-01T06:12:08.767Z,8.70
2017-07-01T06:14:36.175Z,8.60
2017-07-01T06:17:03.630Z,8.67
2017-07-01T06:19:32.004Z,8.80
2017-07-01T06:21:59.381Z,9.20
2017-07-01T06:24:30.679Z,9.00
2017-07-01T06:26:58.888Z,9.40
2017-07-01T06:29:42.102Z,8.90
2017-07-01T06:32:14.210Z,9.20
2017-07-01T06:34:47.262Z,8.70
2017-07-01T06:37:14.801Z,8.50
2017-07-01T06:39:42.287Z,8.27
2017-07-01T06:42:09.796Z,8.30
2017-07-01T06:44:37.228Z,9.17
2017-07-01T06:47:04.634Z,8.50
2017-07-01T06:49:37.821Z,8.50
2017-07-01T06:52:15.189Z,8.63
2017-07-01T06:54:43.817Z,9.33
2017-07-01T06:57:11.305Z,9.27
2017-07-01T06:59:38.807Z,8.83
2017-07-01T07:02:06.233Z,8.57
2017-07-01T07:04:33.697Z,8.87
2017-07-01T07:07:01.089Z,8.90
2017-07-01T07:09:28.556Z,8.47
2017-07-01T07:11:55.972Z,8.50
2017-07-01T07:14:23.367Z,8.93
2017-07-01T07:16:50.820Z,9.80
2017-07-01T07:19:18.230Z,9.00
2017-07-01T07:21:45.625Z,8.90
2017-07-01T07:24:13.130Z,10.00
2017-07-01T07:26:40.565Z,10.30
2017-07-01T07:29:08.787Z,9.63
2017-07-01T07:31:36.339Z,9.60
2017-07-01T07:34:03.782Z,9.43
2017-07-01T07:36:32.280Z,9.60
2017-07-01T07:38:59.502Z,9.00
2017-07-01T07:41:26.931Z,9.50
2017-07-01T07:43:54.330Z,9.87
2017-07-01T07:46:21.694Z,8.10
2017-07-01T07:48:49.143Z,8.87
2017-07-01T07:51:16.553Z,9.73
2017-07-01T07:53:43.937Z,9.77
2017-07-01T07:56:11.427Z,8.67
2017-07-01T07:58:38.884Z,8.90
2017-07-01T08:01:06.264Z,9.80
2017-07-01T08:03:33.641Z,8.93
2017-07-01T08:06:01.043Z,8.23
2017-07-01T08:08:29.088Z,6.80
2017-07-01T08:10:56.528Z,7.23
2017-07-01T08:13:23.908Z,8.27
2017-07-01T08:15:51.362Z,8.80
2017-07-01T08:18:18.726Z,8.60
2017-07-01T08:20:46.077Z,8.57
2017-07-01T08:23:13.534Z,8.30
2017-07-01T08:25:40.890Z,8.67
2017-07-01T08:28:08.276Z,7.10
2017-07-01T08:30:35.817Z,6.80
2017-07-01T08:33:03.217Z,6.30
2017-07-01T08:35:30.569Z,6.10
2017-07-01T08:37:57.939Z,6.17
2017-07-01T08:40:25.386Z,5.63
2017-07-01T08:42:52.717Z,5.27
2017-07-01T08:45:20.691Z,5.17
2017-07-01T08:47:48.020Z,5.77
2017-07-01T08:50:15.468Z,5.43
2017-07-01T08:52:42.927Z,5.20
2017-07-01T08:55:10.255Z,4.50
2017-07-01T08:57:37.666Z,4.53
2017-07-01T09:00:05.036Z,4.93
2017-07-01T09:02:32.373Z,5.53
2017-07-01T09:04:59.713Z,5.23
2017-07-01T09:07:27.155Z,5.40
2017-07-01T09:09:54.496Z,4.93
2017-07-01T09:12:21.893Z,5.13
2017-07-01T09:14:49.326Z,5.33
2017-07-01T09:17:16.726Z,5.33
2017-07-01T09:19:44.086Z,4.47
2017-07-01T09:22:11.714Z,4.57
2017-07-01T09:24:39.133Z,4.40
2017-07-01T09:27:06.592Z,4.80
2017-07-01T09:29:34.058Z,5.33
2017-07-01T09:32:01.451Z,4.80
2017-07-01T09:34:28.830Z,4.37
2017-07-01T09:36:56.306Z,5.00
2017-07-01T09:39:23.783Z,4.33
2017-07-01T09:41:51.170Z,5.30
2017-07-01T09:44:18.524Z,4.93
2017-07-01T09:46:45.901Z,5.60
2017-07-01T09:49:13.272Z,4.30
2017-07-01T09:51:40.702Z,4.83
2017-07-01T09:54:08.123Z,5.00
2017-07-01T09:56:35.580Z,4.93
2017-07-01T09:59:02.965Z,5.23
2017-07-01T10:01:30.302Z,4.70
2017-07-01T10:03:57.720Z,5.47
2017-07-01T10:06:26.017Z,5.53
2017-07-01T10:08:55.190Z,5.03
2017-07-01T10:11:22.589Z,5.30
2017-07-01T10:13:50.002Z,5.10
2017-07-01T10:16:17.359Z,4.97
2017-07-01T10:18:44.703Z,5.90
2017-07-01T10:21:12.124Z,5.10
2017-07-01T10:23:39.461Z,5.10
2017-07-01T10:26:06.793Z,4.80
2017-07-01T10:28:34.188Z,5.23
2017-07-01T10:31:01.579Z,4.97
2017-07-01T10:33:29.032Z,5.20
2017-07-01T10:35:56.478Z,4.57
2017-07-01T10:38:23.827Z,4.87
2017-07-01T10:40:51.312Z,5.30
2017-07-01T10:43:18.685Z,4.60
2017-07-01T10:45:46.081Z,5.63
2017-07-01T10:48:13.429Z,4.80
2017-07-01T10:50:40.868Z,5.00
2017-07-01T10:53:08.210Z,4.73
2017-07-01T10:55:35.612Z,4.20
2017-07-01T10:58:02.994Z,5.07
2017-07-01T11:00:30.320Z,4.70
2017-07-01T11:02:57.677Z,4.43
2017-07-01T11:05:25.129Z,5.30
2017-07-01T11:07:52.546Z,4.40
2017-07-01T11:10:19.938Z,4.20
2017-07-01T11:12:47.357Z,3.90
2017-07-01T11:15:14.778Z,4.27
2017-07-01T11:17:42.097Z,4.53
2017-07-01T11:20:09.481Z,4.40
2017-07-01T11:22:36.887Z,3.67
2017-07-01T11:25:04.304Z,3.80
2017-07-01T11:27:31.702Z,4.43
2017-07-01T11:29:59.061Z,4.10
2017-07-01T11:32:26.466Z,4.17
2017-07-01T11:34:54.670Z,4.20
2017-07-01T11:37:22.015Z,4.40
2017-07-01T11:39:49.341Z,4.30
2017-07-01T11:42:16.701Z,5.77
2017-07-01T11:44:44.120Z,4.07
2017-07-01T11:47:11.550Z,4.07
2017-07-01T11:49:39.015Z,4.13
2017-07-01T11:52:06.374Z,4.63
2017-07-01T11:54:33.721Z,4.27
2017-07-01T11:57:01.494Z,4.00
2017-07-01T11:59:29.722Z,4.17
2017-07-01T12:01:57.105Z,4.80
2017-07-01T12:04:24.534Z,4.20
2017-07-01T12:06:51.923Z,4.43
2017-07-01T12:09:19.348Z,4.40
2017-07-01T12:11:46.786Z,4.20
2017-07-01T12:14:14.155Z,3.50
2017-07-01T12:16:41.542Z,3.87
2017-07-01T12:19:08.974Z,5.10
2017-07-01T12:21:36.330Z,4.30
2017-07-01T12:24:03.749Z,3.87
2017-07-01T12:26:31.158Z,4.03
2017-07-01T12:28:58.513Z,4.27
2017-07-01T12:31:26.910Z,3.90
2017-07-01T12:33:54.416Z,4.30
2017-07-01T12:36:21.749Z,4.17
2017-07-01T12:38:49.077Z,4.30
2017-07-01T12:41:16.469Z,4.13
2017-07-01T12:43:43.906Z,4.17
2017-07-01T12:46:11.314Z,4.03
2017-07-01T12:48:38.677Z,4.67
2017-07-01T12:51:06.038Z,3.97
2017-07-01T12:53:33.600Z,3.93
2017-07-01T12:56:00.976Z,4.20
2017-07-01T12:58:28.569Z,4.00
2017-07-01T13:00:55.994Z,4.20
2017-07-01T13:03:23.449Z,4.17
2017-07-01T13:05:50.857Z,4.23
2017-07-01T13:08:18.228Z,4.03
2017-07-01T13:10:45.755Z,3.77
2017-07-01T13:13:13.188Z,3.93
2017-07-01T13:15:40.570Z,4.30
2017-07-01T13:18:07.935Z,4.93
2017-07-01T13:20:35.339Z,4.40
2017-07-01T13:23:02.748Z,4.40
2017-07-01T13:25:30.160Z,4.13
2017-07-01T13:27:57.563Z,4.10
2017-07-01T13:30:24.885Z,4.00
2017-07-01T13:32:52.264Z,4.30
2017-07-01T13:35:19.661Z,4.37
2017-07-01T13:37:46.996Z,4.67
2017-07-01T13:40:14.398Z,4.57
2017-07-01T13:42:41.735Z,4.70
2017-07-01T13:45:09.146Z,4.50
2017-07-01T13:47:36.562Z,4.60
2017-07-01T13:50:04.031Z,4.10
2017-07-01T13:52:31.369Z,4.90
2017-07-01T13:54:58.732Z,4.40
2017-07-01T13:57:26.069Z,4.70
2017-07-01T13:59:53.554Z,4.60
2017-07-01T14:02:21.042Z,4.60
2017-07-01T14:04:48.465Z,5.33
2017-07-01T14:07:15.914Z,4.90
2017-07-01T14:09:43.339Z,4.87
2017-07-01T14:12:10.661Z,5.33
2017-07-01T14:14:38.016Z,4.53
2017-07-01T14:17:05.856Z,4.43
2017-07-01T14:19:33.307Z,5.30
2017-07-01T14:22:00.637Z,4.63
2017-07-01T14:24:28.045Z,4.33
2017-07-01T14:26:55.381Z,5.10
2017-07-01T14:29:22.761Z,4.50
2017-07-01T14:31:50.137Z,5.57
2017-07-01T14:34:17.488Z,5.27
2017-07-01T14:36:44.894Z,4.87
2017-07-01T14:39:12.296Z,5.43
2017-07-01T14:41:39.674Z,5.00
2017-07-01T14:44:07.155Z,5.37
2017-07-01T14:46:34.595Z,5.57
2017-07-01T14:49:01.934Z,5.80
2017-07-01T14:51:29.261Z,5.07
2017-07-01T14:53:56.878Z,4.93
2017-07-01T14:56:24.206Z,4.60
2017-07-01T14:58:51.688Z,5.47
2017-07-01T15:01:19.073Z,4.60
2017-07-01T15:03:46.464Z,4.87
2017-07-01T15:06:13.826Z,4.10
2017-07-01T15:08:41.229Z,4.30
2017-07-01T15:11:08.623Z,4.70
2017-07-01T15:13:36.018Z,5.03
2017-07-01T15:16:03.378Z,5.07
2017-07-01T15:18:30.725Z,5.43
2017-07-01T15:20:58.085Z,5.20
2017-07-01T15:23:25.472Z,4.67
2017-07-01T15:25:52.820Z,5.30
2017-07-01T15:28:20.203Z,6.07
2017-07-01T15:30:47.602Z,6.27
2017-07-01T15:33:14.984Z,5.77
2017-07-01T15:35:42.373Z,6.63
2017-07-01T15:38:09.819Z,6.27
2017-07-01T15:40:37.173Z,5.30
2017-07-01T15:43:04.520Z,5.93
2017-07-01T15:45:31.980Z,6.50
2017-07-01T15:47:59.306Z,6.63
2017-07-01T15:50:26.741Z,6.43
2017-07-01T15:52:54.192Z,6.50
2017-07-01T15:55:21.521Z,6.83
2017-07-01T15:57:48.841Z,6.33
2017-07-01T16:00:16.282Z,6.50
2017-07-01T16:02:43.641Z,5.77
2017-07-01T16:05:10.999Z,5.93
2017-07-01T16:07:38.426Z,5.70
2017-07-01T16:10:05.805Z,5.83
2017-07-01T16:12:34.199Z,5.50
2017-07-01T16:15:01.602Z,6.70
2017-07-01T16:17:28.985Z,6.40
2017-07-01T16:19:56.350Z,5.40
2017-07-01T16:22:23.776Z,7.70
2017-07-01T16:24:51.181Z,6.33
2017-07-01T16:27:18.551Z,6.20
2017-07-01T16:29:45.901Z,7.20
2017-07-01T16:32:13.269Z,6.20
2017-07-01T16:34:40.593Z,6.23
2017-07-01T16:37:07.974Z,5.73
2017-07-01T16:39:35.351Z,5.73
2017-07-01T16:42:02.714Z,6.67
2017-07-01T16:44:30.142Z,6.37
2017-07-01T16:46:57.506Z,6.20
2017-07-01T16:49:24.829Z,6.43
2017-07-01T16:51:52.230Z,5.63
2017-07-01T16:54:19.577Z,7.13
2017-07-01T16:56:46.932Z,6.20
2017-07-01T16:59:14.354Z,5.93
2017-07-01T17:01:41.804Z,5.43
2017-07-01T17:04:09.226Z,6.30
2017-07-01T17:06:36.677Z,5.20
2017-07-01T17:09:04.021Z,6.00
2017-07-01T17:11:31.422Z,5.97
2017-07-01T17:13:58.800Z,6.33
2017-07-01T17:16:26.150Z,6.20
2017-07-01T17:18:53.481Z,5.87
2017-07-01T17:21:20.941Z,6.37
2017-07-01T17:23:48.296Z,6.10
2017-07-01T17:26:15.628Z,6.17
2017-07-01T17:28:43.050Z,6.80
2017-07-01T17:31:10.408Z,6.80
2017-07-01T17:33:37.735Z,6.03
2017-07-01T17:36:05.182Z,6.40
2017-07-01T17:38:32.547Z,6.57
2017-07-01T17:40:59.958Z,6.90
2017-07-01T17:43:27.354Z,6.40
2017-07-01T17:45:54.677Z,7.47
2017-07-01T17:48:22.033Z,6.77
2017-07-01T17:50:49.416Z,6.30
2017-07-01T17:53:16.745Z,6.23
2017-07-01T17:55:44.065Z,6.10
2017-07-01T17:58:11.432Z,6.20
2017-07-01T18:00:38.771Z,6.60
2017-07-01T18:03:06.099Z,6.10
2017-07-01T18:05:33.487Z,6.40
2017-07-01T18:08:01.674Z,6.27
2017-07-01T18:10:29.093Z,6.13
2017-07-01T18:12:56.552Z,6.40
2017-07-01T18:15:23.911Z,8.00
2017-07-01T18:17:51.303Z,8.83
2017-07-01T18:20:18.739Z,6.60
2017-07-01T18:22:46.886Z,6.00
2017-07-01T18:25:14.300Z,6.07
2017-07-01T18:27:41.660Z,6.60
2017-07-01T18:30:09.692Z,6.70
2017-07-01T18:32:37.081Z,5.90
2017-07-01T18:35:04.433Z,6.23
2017-07-01T18:37:31.784Z,6.20
2017-07-01T18:39:59.124Z,6.10
2017-07-01T18:42:26.520Z,6.30
2017-07-01T18:44:54.818Z,6.47
2017-07-01T18:47:22.128Z,6.50
2017-07-01T18:49:49.489Z,6.53
2017-07-01T18:52:16.818Z,6.00
2017-07-01T18:54:44.174Z,6.53
2017-07-01T18:57:11.696Z,6.10
2017-07-01T18:59:39.048Z,6.07
2017-07-01T19:02:06.812Z,5.70
2017-07-01T19:04:34.230Z,6.07
2017-07-01T19:07:01.654Z,6.40
2017-07-01T19:09:29.073Z,6.53
2017-07-01T19:11:56.470Z,6.20
2017-07-01T19:14:23.983Z,5.87
2017-07-01T19:16:51.393Z,6.47
2017-07-01T19:19:18.756Z,6.10
2017-07-01T19:21:46.164Z,8.07
2017-07-01T19:24:13.485Z,10.53
2017-07-01T19:26:40.870Z,9.33
2017-07-01T19:29:08.193Z,8.10
2017-07-01T19:31:35.526Z,7.30
2017-07-01T19:34:02.926Z,8.03
2017-07-01T19:36:30.243Z,8.90
2017-07-01T19:38:57.609Z,8.70
2017-07-01T19:41:25.043Z,9.40
2017-07-01T19:43:52.357Z,8.70
2017-07-01T19:46:19.693Z,11.20
2017-07-01T19:48:47.066Z,20.93
2017-07-01T19:51:14.443Z,13.40
2017-07-01T19:53:41.835Z,11.67
2017-07-01T19:56:09.207Z,10.87
2017-07-01T19:58:36.545Z,10.40
2017-07-01T20:01:03.889Z,11.57
2017-07-01T20:03:31.267Z,11.90
2017-07-01T20:05:58.728Z,12.13
2017-07-01T20:08:27.012Z,10.27
2017-07-01T20:10:54.461Z,9.20
2017-07-01T20:13:21.808Z,7.93
2017-07-01T20:15:49.223Z,8.10
2017-07-01T20:18:16.619Z,8.03
2017-07-01T20:20:43.959Z,8.73
2017-07-01T20:23:11.327Z,8.43
2017-07-01T20:25:38.734Z,9.07
2017-07-01T20:28:06.120Z,8.00
2017-07-01T20:30:33.445Z,7.93
2017-07-01T20:33:00.850Z,7.67
2017-07-01T20:35:28.171Z,8.10
2017-07-01T20:37:55.497Z,8.40
2017-07-01T20:40:22.905Z,7.80
2017-07-01T20:42:50.282Z,7.43
2017-07-01T20:45:17.618Z,7.80
2017-07-01T20:47:45.050Z,7.87
2017-07-01T20:50:12.365Z,8.50
2017-07-01T20:52:39.707Z,8.30
2017-07-01T20:55:07.062Z,7.27
2017-07-01T20:57:34.389Z,8.30
2017-07-01T21:00:01.778Z,8.03
2017-07-01T21:02:29.159Z,7.60
2017-07-01T21:04:56.647Z,7.70
2017-07-01T21:07:23.980Z,7.67
2017-07-01T21:09:51.418Z,7.87
2017-07-01T21:12:18.726Z,7.67
2017-07-01T21:14:46.044Z,7.27
2017-07-01T21:17:13.429Z,8.00
2017-07-01T21:19:40.757Z,8.43
2017-07-01T21:22:08.102Z,7.70
2017-07-01T21:24:35.529Z,7.20
2017-07-01T21:27:02.877Z,8.47
2017-07-01T21:29:30.205Z,8.23
2017-07-01T21:31:57.651Z,8.20
2017-07-01T21:34:25.001Z,7.80
2017-07-01T21:36:52.321Z,7.93
2017-07-01T21:39:19.771Z,8.23
2017-07-01T21:41:47.149Z,7.40
2017-07-01T21:44:14.502Z,7.70
2017-07-01T21:46:41.906Z,8.07
2017-07-01T21:49:09.259Z,8.17
2017-07-01T21:51:36.638Z,7.43
2017-07-01T21:54:04.064Z,8.00
2017-07-01T21:56:31.415Z,8.20
2017-07-01T21:58:58.774Z,7.50
2017-07-01T22:01:26.156Z,8.33
2017-07-01T22:03:53.550Z,7.50
2017-07-01T22:06:20.922Z,7.40
2017-07-01T22:08:48.338Z,8.30
2017-07-01T22:11:15.737Z,7.07
2017-07-01T22:13:43.079Z,7.33
2017-07-01T22:16:10.520Z,7.47
2017-07-01T22:18:37.903Z,7.30
2017-07-01T22:21:05.278Z,7.43
2017-07-01T22:23:32.692Z,7.90
2017-07-01T22:26:00.029Z,7.50
2017-07-01T22:28:27.410Z,7.13
2017-07-01T22:30:54.769Z,7.87
2017-07-01T22:33:22.171Z,6.97
2017-07-01T22:35:49.568Z,7.30
2017-07-01T22:38:16.970Z,7.40
2017-07-01T22:40:44.342Z,6.90
2017-07-01T22:43:11.690Z,7.60
2017-07-01T22:45:39.054Z,6.40
2017-07-01T22:48:06.429Z,6.43
2017-07-01T22:50:33.818Z,7.00
2017-07-01T22:53:01.181Z,7.13
2017-07-01T22:55:28.500Z,6.47
2017-07-01T22:57:55.901Z,6.67
2017-07-01T23:00:23.628Z,6.60
2017-07-01T23:02:51.072Z,7.10
2017-07-01T23:05:18.404Z,6.67
2017-07-01T23:07:45.842Z,6.60
2017-07-01T23:10:13.229Z,6.70
2017-07-01T23:12:40.607Z,5.93
2017-07-01T23:15:07.948Z,6.50
2017-07-01T23:17:35.275Z,6.13
2017-07-01T23:20:02.634Z,6.73
2017-07-01T23:22:30.082Z,6.33
2017-07-01T23:24:57.401Z,6.00
2017-07-01T23:27:24.766Z,5.70
2017-07-01T23:29:52.123Z,6.07
2017-07-01T23:32:19.470Z,5.77
2017-07-01T23:34:46.795Z,5.90
2017-07-01T23:37:14.174Z,5.90
2017-07-01T23:39:41.485Z,6.07
2017-07-01T23:42:08.870Z,6.20
2017-07-01T23:44:36.271Z,6.10
2017-07-01T23:47:03.662Z,5.93
2017-07-01T23:49:30.976Z,5.60
2017-07-01T23:51:58.347Z,5.40
2017-07-01T23:54:25.707Z,6.13
2017-07-01T23:56:53.106Z,6.10
2017-07-01T23:59:20.564Z,6.40
